Time;durP1;ratioP1;P1;durP2;ratioP2;P2;SDS_P1;SDS_P2;PMS_P1;PMS_P2;Temp;Humidity;BMP_temperature;BMP_pressure;BME280_temperature;BME280_humidity;BME280_pressure;Samples;Min_cycle;Max_cycle;Signal;HPM_P1;HPM_P2
2021/03/06 00:02:06;;;;;;;12.95;6.47;;;-5.30;99.90;;;;;;5060427;28;20049;-80
2021/03/06 00:04:43;;;;;;;11.13;5.40;;;-5.40;99.90;;;;;;5060515;28;20053;-80
2021/03/06 00:07:09;;;;;;;13.93;6.53;;;-5.40;99.90;;;;;;5063648;28;20057;-80
2021/03/06 00:09:36;;;;;;;14.10;5.82;;;-5.40;99.90;;;;;;5066715;28;20513;-80
2021/03/06 00:12:14;;;;;;;11.60;6.03;;;-5.40;99.90;;;;;;5067441;28;20045;-81
2021/03/06 00:14:40;;;;;;;12.50;5.75;;;-5.40;99.90;;;;;;5061225;28;20127;-81
2021/03/06 00:17:06;;;;;;;12.02;5.32;;;-5.50;99.90;;;;;;5062012;28;20492;-81
2021/03/06 00:19:42;;;;;;;10.32;5.32;;;-5.40;99.90;;;;;;5060313;28;20101;-81
2021/03/06 00:22:08;;;;;;;10.05;5.40;;;-5.50;99.90;;;;;;5060831;28;20136;-81
2021/03/06 00:24:35;;;;;;;9.00;5.57;;;-5.60;99.90;;;;;;5060889;28;20073;-81
2021/03/06 00:27:15;;;;;;;11.30;5.63;;;-5.50;99.90;;;;;;5060897;28;20045;-81
2021/03/06 00:29:41;;;;;;;10.95;5.57;;;-5.60;99.90;;;;;;5058954;28;20079;-81
2021/03/06 00:32:15;;;;;;;10.25;5.18;;;-5.60;99.90;;;;;;5060934;28;20052;-81
2021/03/06 00:34:42;;;;;;;15.65;5.32;;;-5.70;99.90;;;;;;5060040;28;20087;-81
2021/03/06 00:37:08;;;;;;;9.63;4.93;;;-5.60;99.90;;;;;;5059288;28;20493;-81
2021/03/06 00:39:44;;;;;;;9.68;5.55;;;-5.70;99.90;;;;;;5059046;28;20113;-81
2021/03/06 00:42:50;;;;;;;9.70;5.55;;;-5.70;99.90;;;;;;5058950;28;20331;-81
2021/03/06 00:45:16;;;;;;;7.63;5.13;;;-5.70;99.90;;;;;;5059803;28;20107;-81
2021/03/06 00:47:56;;;;;;;11.98;4.63;;;-5.70;99.90;;;;;;5061021;28;20052;-80
2021/03/06 00:50:34;;;;;;;12.77;5.65;;;-5.70;99.90;;;;;;5058963;28;20095;-80
2021/03/06 00:53:27;;;;;;;8.85;4.97;;;-5.70;99.90;;;;;;5059012;28;20484;-81
2021/03/06 00:55:53;;;;;;;;;;;-5.80;99.90;;;;;;5058869;28;20052;-81
2021/03/06 00:58:20;;;;;;;9.75;4.53;;;-5.80;99.90;;;;;;5058846;28;19931;-80
2021/03/06 01:00:46;;;;;;;7.95;4.75;;;-5.80;99.90;;;;;;5060336;28;20551;-81
2021/03/06 01:03:13;;;;;;;7.97;5.15;;;-5.80;99.90;;;;;;5060082;28;20089;-81
2021/03/06 01:05:39;;;;;;;11.40;5.63;;;-5.90;99.90;;;;;;5059447;28;20080;-82
2021/03/06 01:08:06;;;;;;;9.80;4.85;;;-5.90;99.90;;;;;;5059530;28;20041;-82
2021/03/06 01:10:36;;;;;;;7.00;4.35;;;-5.90;99.90;;;;;;5059930;28;20048;-81
2021/03/06 01:13:49;;;;;;;7.97;4.57;;;-5.90;99.90;;;;;;5056599;28;20067;-82
2021/03/06 01:16:15;;;;;;;8.68;4.97;;;-5.80;99.90;;;;;;5057649;28;20079;-80
2021/03/06 01:18:42;;;;;;;7.45;4.78;;;-5.80;99.90;;;;;;5056853;28;20135;-81
2021/03/06 01:21:10;;;;;;;8.27;4.60;;;-5.80;99.90;;;;;;5056139;28;20057;-81
2021/03/06 01:23:36;;;;;;;9.20;4.80;;;-5.80;99.90;;;;;;5056217;28;20418;-81
2021/03/06 01:26:03;;;;;;;7.30;4.90;;;-5.90;99.90;;;;;;5055725;28;20084;-80
2021/03/06 01:28:33;;;;;;;9.35;4.82;;;-5.90;99.90;;;;;;5057925;28;20053;-81
2021/03/06 01:30:59;;;;;;;7.10;4.65;;;-5.90;99.90;;;;;;5055897;28;20084;-81
2021/03/06 01:33:26;;;;;;;6.20;3.70;;;-6.00;99.90;;;;;;5055286;28;20049;-81
2021/03/06 01:35:54;;;;;;;8.27;4.97;;;-5.90;99.90;;;;;;5055642;28;20048;-81
2021/03/06 01:38:20;;;;;;;10.65;5.20;;;-5.90;99.90;;;;;;5055693;28;20056;-82
2021/03/06 01:40:49;;;;;;;7.28;4.30;;;-5.90;99.90;;;;;;5055737;28;20410;-81
2021/03/06 01:43:19;;;;;;;8.45;4.80;;;-6.00;99.90;;;;;;5052750;28;20529;-81
2021/03/06 01:45:57;;;;;;;7.75;4.35;;;-6.00;99.90;;;;;;5055712;28;20124;-81
2021/03/06 01:48:27;;;;;;;8.35;4.38;;;-6.00;99.90;;;;;;5055479;28;20049;-81
2021/03/06 01:50:53;;;;;;;8.73;5.40;;;-6.10;99.90;;;;;;5055250;28;20080;-81
2021/03/06 01:53:22;;;;;;;5.85;4.38;;;-6.10;99.90;;;;;;5056733;28;20406;-81
2021/03/06 01:55:55;;;;;;;6.22;4.55;;;-6.10;99.90;;;;;;5055686;28;20499;-81
2021/03/06 01:58:21;;;;;;;6.43;4.10;;;-6.10;99.90;;;;;;5055061;28;20505;-81
2021/03/06 02:00:47;;;;;;;6.07;4.20;;;-6.20;99.90;;;;;;5056462;28;20077;-81
2021/03/06 02:03:14;;;;;;;4.70;4.07;;;-6.10;99.90;;;;;;5055765;28;20049;-81
2021/03/06 02:05:44;;;;;;;8.30;4.43;;;-6.20;99.90;;;;;;5056756;28;20049;-81
2021/03/06 02:08:10;;;;;;;6.35;4.10;;;-6.20;99.90;;;;;;5057189;28;20473;-81
2021/03/06 02:10:42;;;;;;;8.02;4.53;;;-6.30;99.90;;;;;;5056896;28;20477;-81
2021/03/06 02:14:00;;;;;;;9.10;5.55;;;-6.20;99.90;;;;;;5055795;28;20465;-81
2021/03/06 02:20:26;;;;;;;7.30;3.80;;;-6.40;99.90;;;;;;5057951;28;20413;-82
2021/03/06 02:23:15;;;;;;;9.13;4.60;;;-6.30;99.90;;;;;;5057925;28;20059;-81
2021/03/06 02:26:03;;;;;;;6.82;3.80;;;-6.50;99.90;;;;;;5057869;28;20049;-82
2021/03/06 02:29:07;;;;;;;6.03;3.95;;;-6.40;99.90;;;;;;5056088;28;20118;-82
2021/03/06 02:31:39;;;;;;;9.13;4.47;;;-6.50;99.90;;;;;;5056053;28;20045;-82
2021/03/06 02:34:10;;;;;;;14.70;4.72;;;-6.50;99.90;;;;;;5056856;28;20052;-83
2021/03/06 02:36:41;;;;;;;9.82;4.63;;;-6.50;99.90;;;;;;5058433;28;20109;-82
2021/03/06 02:39:13;;;;;;;7.18;4.63;;;-6.50;99.90;;;;;;5063897;28;20045;-81
2021/03/06 02:41:42;;;;;;;6.60;4.75;;;-6.50;99.90;;;;;;5056421;28;20053;-82
2021/03/06 02:44:12;;;;;;;6.18;4.20;;;-6.50;99.90;;;;;;5056031;28;20049;-82
2021/03/06 02:46:42;;;;;;;6.32;3.75;;;-6.40;99.90;;;;;;5055742;28;20442;-82
2021/03/06 02:49:08;;;;;;;8.68;4.75;;;-6.40;99.90;;;;;;5056928;28;20057;-82
2021/03/06 02:51:40;;;;;;;10.65;4.53;;;-6.50;99.90;;;;;;5055875;28;20049;-82
2021/03/06 02:54:29;;;;;;;7.60;4.05;;;-6.60;99.90;;;;;;5055632;28;20537;-82
2021/03/06 02:56:56;;;;;;;6.82;4.32;;;-6.70;99.90;;;;;;5056601;28;20091;-82
2021/03/06 03:00:09;;;;;;;7.20;4.28;;;-6.70;99.90;;;;;;5055843;28;20077;-84
2021/03/06 03:02:59;;;;;;;7.25;4.25;;;-6.70;99.90;;;;;;5055714;28;20589;-82
2021/03/06 03:05:43;;;;;;;6.75;4.60;;;-6.70;99.90;;;;;;5055026;28;20441;-81
2021/03/06 03:12:32;;;;;;;7.28;4.03;;;-6.70;99.90;;;;;;5054536;28;20098;-81
2021/03/06 03:15:25;;;;;;;6.63;4.10;;;-6.70;99.90;;;;;;5052909;28;20491;-81
2021/03/06 03:17:54;;;;;;;7.18;4.32;;;-6.80;99.90;;;;;;5053547;28;20499;-81
2021/03/06 03:20:56;;;;;;;5.65;3.78;;;-6.70;99.90;;;;;;5053219;28;20084;-81
2021/03/06 03:23:28;;;;;;;7.47;4.50;;;-6.70;99.90;;;;;;5053732;28;20494;-81
2021/03/06 03:26:06;;;;;;;7.45;4.03;;;-6.70;99.90;;;;;;5012610;28;20065;-81
2021/03/06 03:28:34;;;;;;;4.70;3.90;;;-6.70;99.90;;;;;;5013283;28;20065;-81
2021/03/06 03:31:01;;;;;;;10.02;3.97;;;-6.70;99.90;;;;;;5012796;28;20149;-81
2021/03/06 03:33:41;;;;;;;7.10;4.63;;;-6.70;99.90;;;;;;5013271;28;20049;-81
2021/03/06 03:36:08;;;;;;;7.00;4.28;;;-6.70;99.90;;;;;;5013460;28;20049;-81
2021/03/06 03:38:37;;;;;;;7.80;5.43;;;-6.70;99.90;;;;;;5013457;28;20081;-81
2021/03/06 03:41:07;;;;;;;14.05;6.57;;;-6.70;99.90;;;;;;5013603;28;20085;-81
2021/03/06 03:43:34;;;;;;;9.40;4.72;;;-6.70;99.90;;;;;;5022066;28;20590;-81
2021/03/06 03:46:07;;;;;;;6.40;4.63;;;-6.80;99.90;;;;;;5054798;28;20103;-81
2021/03/06 03:48:50;;;;;;;8.55;5.07;;;-6.90;99.90;;;;;;5052969;28;20049;-82
2021/03/06 03:51:16;;;;;;;10.43;5.40;;;-6.90;99.90;;;;;;5053660;28;20150;-81
2021/03/06 03:53:43;;;;;;;8.95;4.57;;;-6.80;99.90;;;;;;5052867;28;20515;-81
2021/03/06 03:56:29;;;;;;;8.63;4.70;;;-6.90;99.90;;;;;;4993532;28;20454;-81
2021/03/06 03:58:55;;;;;;;9.73;5.00;;;-6.90;99.90;;;;;;4993072;28;20054;-81
2021/03/06 04:01:22;;;;;;;6.88;4.05;;;-6.90;99.90;;;;;;4993165;28;20057;-81
2021/03/06 04:03:54;;;;;;;6.72;4.32;;;-7.00;99.90;;;;;;4992370;28;20051;-81
2021/03/06 04:06:20;;;;;;;6.72;3.90;;;-7.00;99.90;;;;;;4992511;28;20570;-81
2021/03/06 04:08:46;;;;;;;5.70;3.80;;;-7.10;99.90;;;;;;4976743;28;20384;-81
2021/03/06 04:11:26;;;;;;;5.75;4.13;;;-7.00;99.90;;;;;;4992528;28;20089;-81
2021/03/06 04:13:52;;;;;;;9.63;4.38;;;-7.00;99.90;;;;;;4992574;28;20099;-81
2021/03/06 04:16:26;;;;;;;7.05;4.15;;;-6.90;99.90;;;;;;5053102;28;20052;-81
2021/03/06 04:18:52;;;;;;;7.55;4.43;;;-7.10;99.90;;;;;;5052847;28;20049;-81
2021/03/06 04:21:18;;;;;;;7.97;4.38;;;-7.10;99.90;;;;;;5054987;28;20045;-81
2021/03/06 04:23:59;;;;;;;11.25;4.00;;;-7.10;99.90;;;;;;5054888;28;20045;-81
2021/03/06 04:26:31;;;;;;;9.30;4.32;;;-7.00;99.90;;;;;;5052739;28;20045;-81
2021/03/06 04:28:57;;;;;;;6.78;4.03;;;-7.10;99.90;;;;;;5053003;28;20049;-81
2021/03/06 04:31:23;;;;;;;5.18;4.03;;;-7.10;99.90;;;;;;5052977;28;20041;-81
2021/03/06 04:33:51;;;;;;;8.48;3.50;;;-7.00;99.90;;;;;;5053697;28;20054;-82
2021/03/06 04:36:18;;;;;;;6.55;3.58;;;-7.10;99.90;;;;;;5058853;28;20450;-81
2021/03/06 04:38:46;;;;;;;7.18;3.85;;;-7.10;99.90;;;;;;5057022;28;20490;-81
2021/03/06 04:41:12;;;;;;;4.88;3.75;;;-7.00;99.90;;;;;;5058784;28;20098;-82
2021/03/06 04:43:38;;;;;;;8.63;3.83;;;-7.00;99.90;;;;;;5056127;28;20057;-82
2021/03/06 04:46:08;;;;;;;5.88;3.80;;;-7.10;99.90;;;;;;5058838;28;20132;-82
2021/03/06 04:48:35;;;;;;;9.45;3.55;;;-7.10;99.90;;;;;;5058937;28;20465;-81
2021/03/06 04:51:02;;;;;;;12.73;3.95;;;-7.20;99.90;;;;;;5057255;28;20049;-82
2021/03/06 04:53:44;;;;;;;12.13;3.75;;;-7.20;99.90;;;;;;5058846;28;20053;-82
2021/03/06 04:56:10;;;;;;;9.13;4.57;;;-7.20;99.90;;;;;;5057539;28;20041;-82
2021/03/06 04:59:01;;;;;;;9.38;4.05;;;-7.20;99.90;;;;;;5058936;28;20534;-81
2021/03/06 05:01:27;;;;;;;5.07;3.75;;;-7.30;99.90;;;;;;5059069;28;20055;-81
2021/03/06 05:03:56;;;;;;;14.82;4.93;;;-7.20;99.90;;;;;;5063190;28;20049;-81
2021/03/06 05:06:33;;;;;;;7.38;3.72;;;-7.30;99.90;;;;;;5063391;28;20482;-81
2021/03/06 05:09:00;;;;;;;6.38;3.80;;;-7.40;99.90;;;;;;5058007;28;20145;-81
2021/03/06 05:11:27;;;;;;;5.03;3.35;;;-7.40;99.90;;;;;;5057244;28;20076;-81
2021/03/06 05:13:53;;;;;;;8.07;4.45;;;-7.30;99.90;;;;;;5056082;28;20118;-81
2021/03/06 05:16:19;;;;;;;6.65;3.30;;;-7.30;99.90;;;;;;5057281;28;20052;-81
2021/03/06 05:18:47;;;;;;;7.82;4.18;;;-7.30;99.90;;;;;;5057262;28;20095;-81
2021/03/06 05:21:13;;;;;;;8.88;3.67;;;-7.40;99.90;;;;;;5055756;28;20128;-81
2021/03/06 05:23:39;;;;;;;7.30;3.58;;;-7.30;99.90;;;;;;5055522;28;20049;-81
2021/03/06 05:26:05;;;;;;;4.15;3.65;;;-7.30;99.90;;;;;;5055679;28;20076;-81
2021/03/06 05:28:32;;;;;;;9.55;3.92;;;-7.30;99.90;;;;;;5055195;28;20139;-81
2021/03/06 05:31:15;;;;;;;7.22;3.97;;;-7.30;99.90;;;;;;5055349;28;20554;-80
2021/03/06 05:33:42;;;;;;;7.07;4.25;;;-7.40;99.90;;;;;;5055283;28;20055;-80
2021/03/06 05:36:08;;;;;;;5.82;4.07;;;-7.30;99.90;;;;;;5056654;28;20455;-81
2021/03/06 05:38:54;;;;;;;8.43;4.10;;;-7.30;99.90;;;;;;5055158;28;20509;-81
2021/03/06 05:41:21;;;;;;;5.25;3.95;;;-7.30;99.90;;;;;;5055407;28;20051;-81
2021/03/06 05:43:47;;;;;;;7.68;4.22;;;-7.40;99.90;;;;;;5055425;28;20075;-81
2021/03/06 05:46:14;;;;;;;8.63;5.88;;;-7.40;99.90;;;;;;5054967;28;20132;-81
2021/03/06 05:48:41;;;;;;;7.15;4.22;;;-7.40;99.90;;;;;;5056440;28;20049;-81
2021/03/06 05:51:08;;;;;;;7.80;3.97;;;-7.30;99.90;;;;;;5055072;28;20489;-80
2021/03/06 05:53:41;;;;;;;7.82;3.92;;;-7.30;99.90;;;;;;5056577;28;20052;-81
2021/03/06 05:56:09;;;;;;;13.43;6.40;;;-7.30;99.90;;;;;;5057604;28;20137;-81
2021/03/06 05:58:37;;;;;;;19.05;7.15;;;-7.30;99.90;;;;;;5057483;28;20128;-82
2021/03/06 06:01:04;;;;;;;19.17;8.60;;;-7.30;99.90;;;;;;5056575;28;20044;-80
2021/03/06 06:03:51;;;;;;;14.80;6.93;;;-7.30;99.90;;;;;;5061114;28;20060;-81
2021/03/06 06:06:18;;;;;;;7.82;5.00;;;-7.30;99.90;;;;;;5059488;28;20075;-81
2021/03/06 06:08:44;;;;;;;9.38;4.47;;;-7.30;99.90;;;;;;5055907;28;20056;-83
2021/03/06 06:11:11;;;;;;;10.30;5.97;;;-7.30;99.90;;;;;;5055221;28;20080;-82
2021/03/06 06:13:37;;;;;;;9.10;5.45;;;-7.20;99.90;;;;;;5056168;28;20079;-82
2021/03/06 06:16:04;;;;;;;8.55;4.78;;;-7.20;99.90;;;;;;5058350;28;20132;-82
2021/03/06 06:18:30;;;;;;;14.68;4.93;;;-7.20;99.90;;;;;;5055263;28;20045;-80
2021/03/06 06:20:56;;;;;;;5.68;4.07;;;-7.20;99.90;;;;;;5054410;28;20099;-83
2021/03/06 06:23:23;;;;;;;10.05;4.22;;;-7.20;99.90;;;;;;5054044;28;20087;-82
2021/03/06 06:25:49;;;;;;;7.95;5.07;;;-7.10;99.90;;;;;;5056807;28;20133;-81
2021/03/06 06:28:17;;;;;;;10.23;5.50;;;-7.20;99.90;;;;;;5055645;28;20417;-80
2021/03/06 06:31:12;;;;;;;9.32;6.05;;;-7.10;99.90;;;;;;5054943;28;20072;-81
2021/03/06 06:33:39;;;;;;;10.70;5.43;;;-7.10;99.90;;;;;;5055395;28;20102;-81
2021/03/06 06:36:06;;;;;;;9.45;4.93;;;-7.10;99.90;;;;;;5056347;28;20049;-81
2021/03/06 06:38:43;;;;;;;16.02;5.68;;;-7.00;99.90;;;;;;5055276;28;20401;-81
2021/03/06 06:41:10;;;;;;;9.00;5.55;;;-7.00;99.90;;;;;;5054952;28;20158;-81
2021/03/06 06:43:36;;;;;;;8.90;4.80;;;-7.00;99.90;;;;;;5055401;28;20088;-81
2021/03/06 06:46:03;;;;;;;13.27;5.30;;;-6.90;99.90;;;;;;5056001;28;20049;-82
2021/03/06 06:48:30;;;;;;;9.02;5.07;;;-6.80;99.90;;;;;;5055805;28;20048;-82
2021/03/06 06:51:09;;;;;;;7.22;4.72;;;-6.90;99.90;;;;;;5054476;28;20080;-81
2021/03/06 06:53:35;;;;;;;8.68;4.20;;;-6.80;99.90;;;;;;5054961;28;20048;-81
2021/03/06 06:56:02;;;;;;;12.48;4.53;;;-6.70;99.90;;;;;;5056514;28;20049;-82
2021/03/06 06:58:42;;;;;;;7.82;4.50;;;-6.70;99.90;;;;;;5054491;28;20166;-83
2021/03/06 07:01:34;;;;;;;790.55;340.67;;;-6.70;99.90;;;;;;5055208;28;20045;-83
2021/03/06 07:04:02;;;;;;;153.20;63.75;;;-6.70;99.90;;;;;;5054981;28;20057;-83
2021/03/06 07:06:29;;;;;;;79.78;33.92;;;-6.70;99.90;;;;;;5055272;28;20080;-82
2021/03/06 07:09:08;;;;;;;18.75;8.30;;;-6.60;99.90;;;;;;5055600;28;20443;-83
2021/03/06 07:11:34;;;;;;;252.02;85.20;;;-6.60;99.90;;;;;;5056343;28;20076;-83
2021/03/06 07:14:01;;;;;;;79.60;28.85;;;-6.50;99.90;;;;;;5063185;28;20104;-84
2021/03/06 07:16:58;;;;;;;31.30;12.50;;;-6.40;99.90;;;;;;5062953;28;20071;-83
2021/03/06 07:19:39;;;;;;;15.57;7.47;;;-6.30;99.90;;;;;;5051217;28;20517;-83
2021/03/06 07:22:05;;;;;;;25.70;10.93;;;-6.20;99.90;;;;;;5064764;28;20498;-82
2021/03/06 07:24:32;;;;;;;10.45;5.53;;;-6.20;99.90;;;;;;5068892;28;20116;-83
2021/03/06 07:26:58;;;;;;;9.73;5.53;;;-6.20;99.90;;;;;;5065649;28;20045;-83
2021/03/06 07:29:26;;;;;;;12.05;7.10;;;-6.20;99.90;;;;;;5073381;28;20045;-83
2021/03/06 07:31:56;;;;;;;18.02;6.50;;;-6.20;99.90;;;;;;5080852;28;20048;-82
2021/03/06 07:34:26;;;;;;;97.22;54.50;;;-6.10;99.90;;;;;;5076011;28;20053;-83
2021/03/06 07:37:19;;;;;;;500.08;238.35;;;-5.70;99.90;;;;;;5067108;28;20045;-82
2021/03/06 07:39:49;;;;;;;25.65;13.40;;;-3.90;99.90;;;;;;5062380;28;20072;-83
2021/03/06 07:42:41;;;;;;;34.90;14.20;;;-2.20;99.90;;;;;;5058369;28;20104;-82
2021/03/06 07:45:10;;;;;;;23.20;12.32;;;-1.30;99.90;;;;;;5059250;28;20080;-83
2021/03/06 07:47:39;;;;;;;499.77;199.23;;;0.70;99.90;;;;;;5058825;28;20049;-83
2021/03/06 07:50:08;;;;;;;561.35;256.42;;;1.60;99.90;;;;;;5061106;28;20053;-82
2021/03/06 07:52:38;;;;;;;400.13;187.43;;;3.00;99.90;;;;;;5060889;28;20048;-83
2021/03/06 07:55:09;;;;;;;13.85;9.93;;;4.10;99.90;;;;;;5059917;28;20502;-83
2021/03/06 07:58:07;;;;;;;42.80;33.03;;;4.30;99.90;;;;;;5059654;28;20480;-82
2021/03/06 08:00:38;;;;;;;26.42;21.42;;;4.50;99.90;;;;;;5060623;28;20052;-83
2021/03/06 08:03:34;;;;;;;5.43;4.93;;;5.40;99.90;;;;;;5059308;28;20071;-82
2021/03/06 08:06:19;;;;;;;3.65;3.35;;;7.30;99.90;;;;;;5069395;28;20052;-83
2021/03/06 08:08:45;;;;;;;4.88;4.47;;;8.50;99.90;;;;;;5080081;28;20075;-83
2021/03/06 08:11:35;;;;;;;3.63;3.33;;;9.70;97.90;;;;;;5083311;28;20167;-83
2021/03/06 08:14:05;;;;;;;30.02;15.52;;;10.10;90.90;;;;;;5084001;28;20052;-82
2021/03/06 08:16:36;;;;;;;2.85;2.65;;;9.10;87.50;;;;;;5080009;28;20071;-82
2021/03/06 08:19:14;;;;;;;4.10;2.67;;;9.50;85.70;;;;;;5079849;28;20048;-82
2021/03/06 08:21:44;;;;;;;5.97;4.43;;;10.00;86.30;;;;;;5079299;28;20122;-82
2021/03/06 08:24:27;;;;;;;3.88;3.47;;;10.20;88.00;;;;;;5078131;28;20048;-82
2021/03/06 08:27:02;;;;;;;2.30;2.10;;;10.80;78.10;;;;;;5078499;28;20041;-83
2021/03/06 08:29:51;;;;;;;3.15;2.83;;;11.90;75.70;;;;;;5078731;28;20048;-83
2021/03/06 08:32:24;;;;;;;4.57;3.08;;;12.40;66.90;;;;;;5078283;28;20127;-83
2021/03/06 08:35:18;;;;;;;27.42;18.40;;;12.50;65.00;;;;;;5078216;28;20079;-83
2021/03/06 08:37:45;;;;;;;46.90;34.33;;;12.60;64.40;;;;;;5078369;28;20055;-83
2021/03/06 08:40:15;;;;;;;3.53;2.95;;;12.50;64.40;;;;;;5078146;28;20048;-83
2021/03/06 08:42:50;;;;;;;4.20;2.50;;;12.70;66.00;;;;;;5078403;28;20056;-83
2021/03/06 08:46:10;;;;;;;4.57;3.20;;;13.20;64.10;;;;;;5078128;28;20070;-83
2021/03/06 08:48:37;;;;;;;9.95;3.08;;;13.40;62.30;;;;;;5078199;28;20048;-85
2021/03/06 08:51:04;;;;;;;4.53;3.20;;;13.40;63.60;;;;;;5080055;28;20052;-84
2021/03/06 08:53:30;;;;;;;5.53;3.28;;;13.70;62.90;;;;;;5078394;28;20119;-83
2021/03/06 08:55:56;;;;;;;3.80;3.30;;;12.80;60.70;;;;;;5078166;28;20080;-84
2021/03/06 08:58:23;;;;;;;16.00;5.30;;;13.10;61.70;;;;;;5077025;28;20086;-84
2021/03/06 09:00:51;;;;;;;9.90;7.57;;;14.30;61.30;;;;;;5077176;28;20091;-84
2021/03/06 09:03:21;;;;;;;2.83;2.60;;;14.40;59.10;;;;;;5076557;28;20052;-85
2021/03/06 09:06:31;;;;;;;4.90;3.17;;;14.50;61.70;;;;;;5077534;28;20452;-85
2021/03/06 09:08:57;;;;;;;2.60;2.40;;;15.80;58.00;;;;;;5076990;28;20102;-84
2021/03/06 09:11:24;;;;;;;7.30;2.70;;;15.90;56.20;;;;;;5078503;28;20174;-85
2021/03/06 09:13:52;;;;;;;2.80;2.30;;;17.20;55.30;;;;;;5077065;28;20044;-83
2021/03/06 09:16:19;;;;;;;4.57;2.72;;;17.80;52.90;;;;;;5076895;28;20040;-83
2021/03/06 09:18:53;;;;;;;3.63;2.40;;;19.00;50.90;;;;;;5077358;28;20052;-85
2021/03/06 09:21:23;;;;;;;2.67;2.47;;;18.50;49.80;;;;;;5075808;28;20049;-83
2021/03/06 09:23:54;;;;;;;3.10;2.15;;;19.30;47.60;;;;;;5079087;28;20094;-84
2021/03/06 09:26:26;;;;;;;4.82;3.15;;;19.40;46.20;;;;;;5077664;28;20062;-83
2021/03/06 09:28:55;;;;;;;5.68;2.00;;;20.00;45.90;;;;;;5077827;28;20059;-84
2021/03/06 09:31:29;;;;;;;5.18;2.22;;;18.70;47.80;;;;;;5077312;28;20485;-83
2021/03/06 09:33:56;;;;;;;2.53;1.95;;;19.70;46.40;;;;;;5077977;28;20485;-84
2021/03/06 09:36:28;;;;;;;2.47;2.33;;;19.70;46.60;;;;;;5077238;28;20087;-83
2021/03/06 09:39:00;;;;;;;2.70;2.20;;;19.10;46.40;;;;;;5079071;28;20051;-84
2021/03/06 09:41:33;;;;;;;2.45;1.90;;;18.90;46.20;;;;;;5077282;28;20114;-84
2021/03/06 09:44:05;;;;;;;2.33;1.90;;;19.40;45.00;;;;;;5035605;28;20473;-83
2021/03/06 09:46:36;;;;;;;7.28;1.90;;;19.70;44.60;;;;;;5019624;28;20041;-84
2021/03/06 09:49:38;;;;;;;3.13;1.88;;;19.10;44.40;;;;;;5018992;28;20046;-83
2021/03/06 09:52:08;;;;;;;1.70;1.60;;;19.30;43.20;;;;;;5019507;28;20418;-84
2021/03/06 09:54:36;;;;;;;2.17;1.92;;;18.80;42.70;;;;;;5026794;28;20073;-84
2021/03/06 09:57:06;;;;;;;3.00;2.08;;;16.00;44.90;;;;;;5020737;28;20053;-84
2021/03/06 09:59:37;;;;;;;3.25;2.75;;;15.70;45.50;;;;;;5021668;28;20045;-84
2021/03/06 10:02:08;;;;;;;2.67;1.75;;;16.40;43.50;;;;;;5055574;28;20045;-84
2021/03/06 10:04:35;;;;;;;9.35;2.50;;;17.30;43.50;;;;;;5078026;28;20437;-83
2021/03/06 10:07:11;;;;;;;3.00;1.98;;;16.50;44.00;;;;;;5078714;28;20045;-83
2021/03/06 10:09:38;;;;;;;3.73;1.67;;;17.10;43.20;;;;;;5086728;28;20118;-85
2021/03/06 10:12:10;;;;;;;2.13;1.92;;;17.30;42.50;;;;;;5086726;28;20048;-84
2021/03/06 10:14:37;;;;;;;4.18;1.77;;;17.40;41.70;;;;;;5086146;28;20087;-84
2021/03/06 10:17:05;;;;;;;2.75;1.75;;;16.10;41.70;;;;;;5086476;28;20056;-85
2021/03/06 10:19:53;;;;;;;2.22;2.03;;;14.80;43.90;;;;;;5087499;28;20098;-84
2021/03/06 10:22:21;;;;;;;3.95;1.98;;;15.40;43.50;;;;;;5085961;28;20223;-84
2021/03/06 10:24:55;;;;;;;2.00;1.90;;;15.10;45.50;;;;;;5087595;28;20044;-84
2021/03/06 10:27:45;;;;;;;2.78;1.63;;;15.80;43.40;;;;;;5088888;28;20040;-84
2021/03/06 10:30:31;;;;;;;2.45;1.85;;;15.70;43.10;;;;;;5087185;28;20049;-85
2021/03/06 10:33:03;;;;;;;2.60;1.90;;;15.80;42.60;;;;;;5085769;28;20053;-84
2021/03/06 10:35:42;;;;;;;2.53;1.90;;;16.20;42.30;;;;;;5085844;28;20059;-84
2021/03/06 10:38:10;;;;;;;2.08;1.70;;;16.70;40.90;;;;;;5086735;28;20048;-85
2021/03/06 10:40:50;;;;;;;1.80;1.58;;;15.10;42.10;;;;;;5089530;28;20116;-84
2021/03/06 10:43:38;;;;;;;2.05;1.60;;;16.10;42.40;;;;;;5090324;28;20087;-85
2021/03/06 10:46:27;;;;;;;3.67;1.85;;;15.60;42.40;;;;;;5080429;28;20044;-84
2021/03/06 10:48:59;;;;;;;33.95;18.48;;;14.60;44.40;;;;;;5070928;28;20049;-85
2021/03/06 10:51:43;;;;;;;2.92;2.28;;;14.70;44.00;;;;;;5073788;28;20087;-84
2021/03/06 10:54:10;;;;;;;2.35;1.30;;;14.20;43.80;;;;;;5071302;28;20068;-85
2021/03/06 10:56:41;;;;;;;2.00;1.52;;;15.50;42.60;;;;;;5068276;28;20057;-84
2021/03/06 10:59:08;;;;;;;1.55;1.40;;;16.90;41.20;;;;;;5066818;28;20055;-84
2021/03/06 11:01:46;;;;;;;1.60;1.50;;;17.60;39.60;;;;;;5067991;28;20045;-85
2021/03/06 11:04:29;;;;;;;3.42;3.13;;;18.60;39.90;;;;;;5068758;28;20053;-85
2021/03/06 11:07:02;;;;;;;2.08;1.35;;;19.80;36.10;;;;;;5068345;28;20476;-84
2021/03/06 11:09:37;;;;;;;1.77;1.67;;;17.40;36.90;;;;;;5067623;28;20053;-84
2021/03/06 11:12:21;;;;;;;3.83;1.27;;;15.50;39.00;;;;;;5074282;28;20482;-84
2021/03/06 11:15:23;;;;;;;;;;;16.30;42.10;;;;;;5071946;28;20464;-84
2021/03/06 11:17:54;;;;;;;4.57;3.55;;;18.30;38.60;;;;;;5005296;28;20460;-84
2021/03/06 11:20:23;;;;;;;1.38;1.27;;;19.20;36.80;;;;;;5054600;28;20048;-83
2021/03/06 11:22:50;;;;;;;1.15;1.10;;;18.70;36.10;;;;;;5057645;28;20098;-84
2021/03/06 11:25:18;;;;;;;1.40;1.30;;;18.00;37.70;;;;;;5069293;28;20079;-84
2021/03/06 11:27:49;;;;;;;1.48;1.20;;;18.20;37.10;;;;;;5070003;28;20049;-84
2021/03/06 11:30:19;;;;;;;2.45;1.20;;;20.30;35.90;;;;;;5069048;28;20053;-82
2021/03/06 11:32:46;;;;;;;2.78;1.48;;;19.30;34.50;;;;;;5069218;28;20049;-83
2021/03/06 11:35:13;;;;;;;3.08;1.30;;;16.70;37.20;;;;;;5069270;28;20076;-83
2021/03/06 11:37:41;;;;;;;3.25;1.48;;;16.50;38.60;;;;;;5070807;28;20049;-84
2021/03/06 11:40:08;;;;;;;1.58;1.00;;;17.30;38.00;;;;;;5071128;28;20079;-83
2021/03/06 11:42:35;;;;;;;2.85;1.27;;;17.80;37.90;;;;;;5071736;28;20059;-84
2021/03/06 11:45:02;;;;;;;1.30;1.10;;;18.70;36.30;;;;;;5076232;28;20104;-83
2021/03/06 11:47:28;;;;;;;2.47;1.40;;;19.40;35.10;;;;;;5078825;28;20049;-84
2021/03/06 11:49:54;;;;;;;1.52;1.20;;;19.70;34.60;;;;;;5077055;28;20071;-83
2021/03/06 11:52:21;;;;;;;1.67;1.13;;;16.80;37.40;;;;;;5076528;28;20110;-83
2021/03/06 11:54:47;;;;;;;1.60;1.10;;;16.10;37.90;;;;;;5070307;28;20049;-81
2021/03/06 11:57:25;;;;;;;2.97;1.63;;;16.20;37.90;;;;;;5067977;28;20076;-82
2021/03/06 11:59:53;;;;;;;2.50;2.30;;;15.90;39.00;;;;;;5073245;28;20056;-82
2021/03/06 12:02:20;;;;;;;2.95;1.75;;;14.30;39.90;;;;;;5073603;28;20044;-82
2021/03/06 12:04:47;;;;;;;1.23;1.13;;;14.00;41.70;;;;;;5074940;28;20040;-83
2021/03/06 12:07:14;;;;;;;2.03;1.35;;;13.50;42.50;;;;;;5069900;28;20117;-82
2021/03/06 12:09:40;;;;;;;2.78;1.30;;;14.60;42.40;;;;;;5064248;28;20452;-81
2021/03/06 12:12:07;;;;;;;1.55;1.20;;;15.70;40.30;;;;;;5063515;28;20068;-82
2021/03/06 12:14:33;;;;;;;4.20;1.48;;;17.60;38.60;;;;;;5061618;28;20049;-82
2021/03/06 12:17:00;;;;;;;1.08;1.08;;;17.60;38.10;;;;;;5061693;28;20099;-83
2021/03/06 12:19:26;;;;;;;1.80;1.25;;;18.60;38.60;;;;;;5060389;28;20052;-83
2021/03/06 12:21:57;;;;;;;2.28;2.05;;;18.90;36.20;;;;;;5059762;28;20033;-83
2021/03/06 12:24:23;;;;;;;2.00;1.90;;;16.50;36.10;;;;;;5060928;28;20049;-83
2021/03/06 12:26:51;;;;;;;3.15;2.10;;;15.10;38.80;;;;;;5060590;28;20071;-83
2021/03/06 12:29:18;;;;;;;2.20;2.00;;;13.90;40.60;;;;;;5059639;28;20056;-83
2021/03/06 12:31:45;;;;;;;2.33;2.10;;;13.30;41.10;;;;;;5059232;28;20049;-82
2021/03/06 12:35:02;;;;;;;2.45;2.00;;;14.40;40.40;;;;;;5059133;28;20048;-83
2021/03/06 12:37:29;;;;;;;8.73;2.65;;;14.40;40.70;;;;;;5059658;28;20106;-83
2021/03/06 12:43:43;;;;;;;2.33;1.95;;;14.70;41.80;;;;;;5081454;28;20137;-83
2021/03/06 12:46:10;;;;;;;2.97;2.13;;;14.70;40.70;;;;;;5079655;28;20048;-82
2021/03/06 12:48:37;;;;;;;2.55;2.35;;;14.70;41.80;;;;;;5079375;28;20098;-85
2021/03/06 12:51:27;;;;;;;2.55;2.35;;;14.20;40.10;;;;;;5079964;28;20068;-83
2021/03/06 12:53:54;;;;;;;3.95;2.53;;;13.10;42.30;;;;;;5079688;28;20048;-82
2021/03/06 12:56:21;;;;;;;2.92;2.42;;;12.30;43.30;;;;;;5076992;28;20068;-84
2021/03/06 12:58:57;;;;;;;3.20;2.85;;;11.20;44.60;;;;;;5077336;28;20086;-85
2021/03/06 13:01:23;;;;;;;4.57;3.05;;;11.40;45.20;;;;;;5077624;28;20098;-82
2021/03/06 13:03:53;;;;;;;3.13;2.70;;;11.80;45.00;;;;;;5075768;28;20059;-82
2021/03/06 13:06:19;;;;;;;3.28;2.22;;;11.50;45.90;;;;;;5075749;28;20087;-85
2021/03/06 13:08:50;;;;;;;2.60;2.40;;;11.00;46.40;;;;;;5076311;28;20413;-83
2021/03/06 13:11:20;;;;;;;3.13;2.53;;;11.00;45.80;;;;;;5076538;28;20098;-85
2021/03/06 13:13:46;;;;;;;3.45;2.42;;;10.90;46.90;;;;;;5076034;28;20040;-83
2021/03/06 13:16:13;;;;;;;3.53;3.22;;;11.00;47.80;;;;;;5077069;28;20056;-85
2021/03/06 13:18:39;;;;;;;3.42;3.05;;;10.80;49.50;;;;;;5077670;28;20079;-85
2021/03/06 13:21:26;;;;;;;5.43;2.75;;;10.50;48.20;;;;;;5076119;28;20079;-85
2021/03/06 13:23:52;;;;;;;6.35;3.25;;;10.20;48.80;;;;;;5077155;28;20459;-85
2021/03/06 13:26:18;;;;;;;4.85;3.15;;;9.70;50.40;;;;;;5076218;28;20076;-85